createdAt,value
2022-09-22T00:01:05.704Z,54.90
2022-09-22T00:03:44.536Z,54.90
2022-09-22T00:06:32.897Z,55.30
2022-09-22T00:09:12.147Z,55.80
2022-09-22T00:11:50.274Z,56.00
2022-09-22T00:14:27.861Z,56.30
2022-09-22T00:17:02.705Z,56.60
2022-09-22T00:19:38.150Z,57.00
2022-09-22T00:22:12.989Z,57.30
2022-09-22T00:24:47.895Z,57.30
2022-09-22T00:27:24.202Z,57.20
2022-09-22T00:29:59.120Z,57.30
2022-09-22T00:32:33.982Z,57.40
2022-09-22T00:35:09.038Z,57.40
2022-09-22T00:37:43.883Z,57.50
2022-09-22T00:40:18.864Z,57.80
2022-09-22T00:42:53.750Z,58.00
2022-09-22T00:45:28.591Z,58.40
2022-09-22T00:48:03.593Z,58.40
2022-09-22T00:50:39.314Z,58.80
2022-09-22T00:53:16.613Z,59.10
2022-09-22T00:55:56.593Z,59.20
2022-09-22T00:58:36.290Z,59.40
2022-09-22T01:01:11.446Z,59.30
2022-09-22T01:03:47.783Z,59.40
2022-09-22T01:06:27.525Z,59.40
2022-09-22T01:09:02.590Z,59.50
2022-09-22T01:11:39.955Z,59.80
2022-09-22T01:14:52.876Z,59.90
2022-09-22T01:17:53.339Z,60.20
2022-09-22T01:20:54.196Z,60.20
2022-09-22T01:24:30.027Z,60.50
2022-09-22T01:27:23.961Z,61.20
2022-09-22T01:30:21.783Z,61.60
2022-09-22T01:33:38.405Z,61.90
2022-09-22T01:36:36.354Z,62.20
2022-09-22T01:39:22.788Z,62.20
2022-09-22T01:42:23.422Z,62.50
2022-09-22T01:45:07.334Z,62.60
2022-09-22T01:48:02.269Z,62.50
2022-09-22T01:50:45.554Z,62.80
2022-09-22T01:53:25.733Z,62.60
2022-09-22T01:56:05.865Z,62.70
2022-09-22T01:58:47.741Z,62.60
2022-09-22T02:01:42.195Z,62.60
2022-09-22T02:04:29.921Z,62.80
2022-09-22T02:07:14.356Z,63.20
2022-09-22T02:09:50.784Z,63.90
2022-09-22T02:12:25.693Z,64.50
2022-09-22T02:15:00.563Z,64.70
2022-09-22T02:17:36.059Z,64.90
2022-09-22T02:20:11.119Z,65.00
2022-09-22T02:22:46.021Z,65.50
2022-09-22T02:25:24.772Z,65.70
2022-09-22T02:27:59.959Z,65.90
2022-09-22T02:30:35.583Z,66.10
2022-09-22T02:33:12.039Z,66.20
2022-09-22T02:35:54.724Z,66.20
2022-09-22T02:38:47.463Z,66.00
2022-09-22T02:41:39.311Z,65.90
2022-09-22T02:44:48.210Z,65.70
2022-09-22T02:47:32.618Z,65.50
2022-09-22T02:50:11.062Z,65.50
2022-09-22T02:52:46.086Z,65.40
2022-09-22T02:55:21.055Z,65.60
2022-09-22T02:57:56.009Z,65.70
2022-09-22T03:00:31.340Z,65.70
2022-09-22T03:03:07.498Z,65.60
2022-09-22T03:05:42.522Z,65.70
2022-09-22T03:08:17.470Z,65.70
2022-09-22T03:10:52.475Z,65.70
2022-09-22T03:13:27.395Z,65.90
2022-09-22T03:16:02.422Z,65.90
2022-09-22T03:18:37.515Z,66.10
2022-09-22T03:21:12.491Z,66.10
2022-09-22T03:23:47.480Z,66.10
2022-09-22T03:26:22.478Z,66.10
2022-09-22T03:28:57.523Z,66.10
2022-09-22T03:31:32.481Z,66.00
2022-09-22T03:34:07.475Z,65.90
2022-09-22T03:36:42.583Z,66.20
2022-09-22T03:39:17.497Z,66.20
2022-09-22T03:41:52.474Z,66.10
2022-09-22T03:44:27.435Z,66.30
2022-09-22T03:47:02.395Z,66.10
2022-09-22T03:49:37.279Z,66.10
2022-09-22T03:52:12.238Z,65.90
2022-09-22T03:54:47.167Z,65.80
2022-09-22T03:57:22.257Z,65.90
2022-09-22T03:59:57.380Z,66.20
2022-09-22T04:02:32.406Z,66.20
2022-09-22T04:05:08.044Z,66.20
2022-09-22T04:07:43.058Z,66.00
2022-09-22T04:10:17.961Z,66.00
2022-09-22T04:12:52.898Z,66.10
2022-09-22T04:15:27.872Z,66.10
2022-09-22T04:18:03.030Z,66.00
2022-09-22T04:20:43.352Z,65.90
2022-09-22T04:23:18.325Z,65.90
2022-09-22T04:25:54.116Z,65.90
2022-09-22T04:28:29.754Z,65.90
2022-09-22T04:31:04.882Z,66.00
2022-09-22T04:33:39.836Z,66.00
2022-09-22T04:36:14.811Z,66.00
2022-09-22T04:38:49.805Z,66.30
2022-09-22T04:41:24.773Z,66.00
2022-09-22T04:43:59.921Z,66.10
2022-09-22T04:46:34.942Z,66.30
2022-09-22T04:49:09.894Z,66.50
2022-09-22T04:51:45.246Z,66.70
2022-09-22T04:54:20.247Z,66.70
2022-09-22T04:56:55.233Z,66.90
2022-09-22T04:59:30.197Z,67.00
2022-09-22T05:02:05.376Z,67.20
2022-09-22T05:04:40.340Z,67.60
2022-09-22T05:07:15.324Z,67.80
2022-09-22T05:09:50.316Z,67.80
2022-09-22T05:12:26.400Z,67.70
2022-09-22T05:15:01.375Z,67.70
2022-09-22T05:17:36.741Z,67.70
2022-09-22T05:20:11.786Z,67.40
2022-09-22T05:22:47.727Z,67.30
2022-09-22T05:25:22.712Z,67.20
2022-09-22T05:27:58.059Z,67.00
2022-09-22T05:30:33.085Z,66.90
2022-09-22T05:33:08.136Z,67.00
2022-09-22T05:35:43.215Z,66.90
2022-09-22T05:38:18.201Z,66.90
2022-09-22T05:40:53.141Z,66.90
2022-09-22T05:43:28.463Z,66.90
2022-09-22T05:46:03.451Z,67.30
2022-09-22T05:48:38.384Z,67.60
2022-09-22T05:51:13.356Z,67.80
2022-09-22T05:53:48.349Z,68.10
2022-09-22T05:56:23.289Z,68.00
2022-09-22T05:58:58.508Z,67.90
2022-09-22T06:01:33.867Z,67.80
2022-09-22T06:04:09.427Z,67.80
2022-09-22T06:06:44.436Z,67.80
2022-09-22T06:09:19.673Z,67.80
2022-09-22T06:11:54.685Z,67.70
2022-09-22T06:14:29.604Z,67.70
2022-09-22T06:17:04.981Z,67.60
2022-09-22T06:19:41.062Z,67.60
2022-09-22T06:22:19.362Z,68.20
2022-09-22T06:24:54.347Z,68.60
2022-09-22T06:27:29.251Z,69.30
2022-09-22T06:30:04.984Z,69.80
2022-09-22T06:32:40.325Z,70.00
2022-09-22T06:35:15.366Z,70.40
2022-09-22T06:37:57.995Z,70.00
2022-09-22T06:40:36.229Z,69.40
2022-09-22T06:43:22.722Z,69.10
2022-09-22T06:46:00.273Z,68.80
2022-09-22T06:48:35.258Z,68.50
2022-09-22T06:51:12.714Z,69.00
2022-09-22T06:53:51.979Z,69.10
2022-09-22T06:56:28.147Z,69.30
2022-09-22T06:59:10.168Z,70.40
2022-09-22T07:01:45.875Z,71.80
2022-09-22T07:04:23.520Z,71.30
2022-09-22T07:06:58.692Z,71.40
2022-09-22T07:09:33.664Z,71.10
2022-09-22T07:12:08.808Z,71.00
2022-09-22T07:14:45.303Z,71.50
2022-09-22T07:17:23.721Z,72.40
2022-09-22T07:19:58.802Z,72.60
2022-09-22T07:22:39.519Z,72.80
2022-09-22T07:25:16.442Z,72.60
2022-09-22T07:27:51.380Z,73.70
2022-09-22T07:30:27.088Z,74.60
2022-09-22T07:33:02.241Z,74.50
2022-09-22T07:35:41.104Z,74.30
2022-09-22T07:38:18.811Z,74.00
2022-09-22T07:40:53.785Z,73.10
2022-09-22T07:43:28.923Z,72.20
2022-09-22T07:46:04.868Z,71.60
2022-09-22T07:48:49.868Z,71.20
2022-09-22T07:51:25.703Z,71.70
2022-09-22T07:54:09.948Z,71.80
2022-09-22T07:56:45.364Z,71.50
2022-09-22T07:59:20.319Z,70.40
2022-09-22T08:01:55.799Z,70.00
2022-09-22T08:04:31.872Z,69.40
2022-09-22T08:07:07.324Z,68.70
2022-09-22T08:09:43.290Z,68.30
2022-09-22T08:12:18.421Z,67.40
2022-09-22T08:14:53.850Z,66.00
2022-09-22T08:17:28.785Z,65.20
2022-09-22T08:20:05.242Z,63.50
2022-09-22T08:22:41.836Z,62.60
2022-09-22T08:25:16.846Z,61.40
2022-09-22T08:27:53.469Z,60.30
2022-09-22T08:30:28.444Z,59.00
2022-09-22T08:33:03.513Z,58.20
2022-09-22T08:35:38.510Z,57.20
2022-09-22T08:38:13.506Z,56.10
2022-09-22T08:41:20.541Z,55.30
2022-09-22T08:44:01.670Z,54.80
2022-09-22T08:46:46.430Z,54.20
2022-09-22T08:50:05.446Z,53.40
2022-09-22T08:52:55.701Z,53.00
2022-09-22T08:55:31.421Z,51.90
2022-09-22T08:58:37.383Z,51.20
2022-09-22T09:01:22.227Z,50.80
2022-09-22T09:04:42.470Z,48.90
2022-09-22T09:07:33.106Z,48.50
2022-09-22T09:10:46.549Z,47.00
2022-09-22T09:13:31.648Z,45.90
2022-09-22T09:16:44.397Z,45.50
2022-09-22T09:19:41.194Z,44.00
2022-09-22T09:22:36.098Z,43.70
2022-09-22T09:25:24.635Z,43.30
2022-09-22T09:28:23.042Z,42.80
2022-09-22T09:31:35.323Z,40.80
2022-09-22T09:34:19.702Z,40.20
2022-09-22T09:37:07.883Z,40.20
2022-09-22T09:39:45.155Z,40.00
2022-09-22T09:42:28.555Z,39.50
2022-09-22T09:45:04.112Z,39.10
2022-09-22T09:48:11.688Z,39.00
2022-09-22T09:50:46.775Z,38.70
2022-09-22T09:53:40.839Z,37.60
2022-09-22T09:56:29.207Z,37.20
2022-09-22T09:59:26.216Z,36.90
2022-09-22T10:02:01.701Z,36.80
2022-09-22T10:04:38.489Z,36.70
2022-09-22T10:07:26.195Z,36.30
2022-09-22T10:10:31.566Z,36.00
2022-09-22T10:13:06.474Z,36.00
2022-09-22T10:15:43.319Z,35.60
2022-09-22T10:18:24.339Z,35.00
2022-09-22T10:21:03.598Z,34.70
2022-09-22T10:23:38.743Z,34.30
2022-09-22T10:26:21.810Z,34.50
2022-09-22T10:29:14.766Z,33.50
2022-09-22T10:32:16.023Z,32.60
2022-09-22T10:34:51.843Z,32.50
2022-09-22T10:37:30.520Z,32.50
2022-09-22T10:40:14.654Z,32.70
2022-09-22T10:42:52.218Z,32.40
2022-09-22T10:45:50.869Z,32.40
2022-09-22T10:49:08.434Z,32.40
2022-09-22T10:52:14.721Z,32.20
2022-09-22T10:55:18.594Z,31.40
2022-09-22T10:58:08.385Z,31.80
2022-09-22T11:00:43.556Z,31.60
2022-09-22T11:03:59.764Z,31.40
2022-09-22T11:07:07.584Z,31.20
2022-09-22T11:10:22.364Z,31.20
2022-09-22T11:13:29.533Z,31.10
2022-09-22T11:16:19.523Z,30.20
2022-09-22T11:19:39.016Z,29.90
2022-09-22T11:22:33.826Z,30.10
2022-09-22T11:26:11.991Z,30.10
2022-09-22T11:29:38.882Z,29.90
2022-09-22T11:32:49.268Z,29.80
2022-09-22T11:36:28.256Z,29.60
2022-09-22T11:39:19.057Z,29.60
2022-09-22T11:42:21.537Z,29.70
2022-09-22T11:45:27.211Z,30.00
2022-09-22T11:48:35.604Z,29.40
2022-09-22T11:51:41.826Z,29.50
2022-09-22T11:55:00.524Z,28.60
2022-09-22T11:57:41.204Z,28.70
2022-09-22T12:00:19.688Z,28.60
2022-09-22T12:03:11.348Z,29.00
2022-09-22T12:05:59.084Z,29.10
2022-09-22T12:08:43.296Z,28.70
2022-09-22T12:11:20.354Z,29.60
2022-09-22T12:13:57.873Z,29.00
2022-09-22T12:17:01.162Z,28.60
2022-09-22T12:20:14.840Z,28.70
2022-09-22T12:23:19.655Z,28.50
2022-09-22T12:25:57.899Z,27.30
2022-09-22T12:28:42.519Z,27.60
2022-09-22T12:31:20.738Z,27.50
2022-09-22T12:33:56.827Z,27.60
2022-09-22T12:36:38.220Z,28.00
2022-09-22T12:39:31.337Z,27.90
2022-09-22T12:42:19.856Z,27.30
2022-09-22T12:45:01.298Z,27.00
2022-09-22T12:47:40.923Z,27.80
2022-09-22T12:50:24.839Z,27.70
2022-09-22T12:53:06.170Z,25.90
2022-09-22T12:55:41.149Z,27.20
2022-09-22T12:58:19.565Z,26.40
2022-09-22T13:01:28.948Z,27.80
2022-09-22T13:04:16.884Z,26.40
2022-09-22T13:06:54.848Z,26.60
2022-09-22T13:09:30.567Z,25.70
2022-09-22T13:12:14.621Z,25.50
2022-09-22T13:15:18.078Z,25.80
2022-09-22T13:17:53.907Z,26.90
2022-09-22T13:20:32.918Z,26.20
2022-09-22T13:23:12.498Z,26.10
2022-09-22T13:25:48.565Z,25.80
2022-09-22T13:28:27.545Z,26.50
2022-09-22T13:31:14.528Z,26.70
2022-09-22T13:33:50.809Z,25.40
2022-09-22T13:36:28.825Z,25.60
2022-09-22T13:39:04.543Z,25.10
2022-09-22T13:41:45.444Z,25.80
2022-09-22T13:44:30.078Z,26.70
2022-09-22T13:47:13.407Z,25.60
2022-09-22T13:49:55.940Z,25.10
2022-09-22T13:52:35.336Z,24.50
2022-09-22T13:55:21.393Z,24.30
2022-09-22T13:57:59.264Z,26.60
2022-09-22T14:01:13.041Z,23.40
2022-09-22T14:03:51.118Z,23.90
2022-09-22T14:06:31.032Z,24.40
2022-09-22T14:09:07.275Z,24.70
2022-09-22T14:11:42.601Z,23.70
2022-09-22T14:14:27.324Z,24.10
2022-09-22T14:17:18.843Z,24.70
2022-09-22T14:20:09.444Z,25.20
2022-09-22T14:22:44.392Z,24.90
2022-09-22T14:25:21.970Z,25.80
2022-09-22T14:27:59.824Z,25.40
2022-09-22T14:30:35.121Z,24.60
2022-09-22T14:33:22.432Z,23.00
2022-09-22T14:36:08.191Z,24.30
2022-09-22T14:38:48.868Z,23.50
2022-09-22T14:41:36.623Z,24.50
2022-09-22T14:44:35.235Z,24.80
2022-09-22T14:47:26.675Z,23.70
2022-09-22T14:50:35.116Z,24.70
2022-09-22T14:53:25.189Z,24.30
2022-09-22T14:56:22.913Z,23.20
2022-09-22T14:59:23.432Z,23.20
2022-09-22T15:02:17.007Z,22.60
2022-09-22T15:04:53.891Z,24.80
2022-09-22T15:07:33.731Z,23.80
2022-09-22T15:10:26.368Z,24.20
2022-09-22T15:13:35.049Z,24.50
2022-09-22T15:16:40.317Z,24.10
2022-09-22T15:19:15.411Z,23.80
2022-09-22T15:21:51.349Z,24.60
2022-09-22T15:24:26.918Z,23.80
2022-09-22T15:27:06.555Z,24.30
2022-09-22T15:29:41.652Z,23.40
2022-09-22T15:32:16.604Z,23.70
2022-09-22T15:34:51.834Z,24.60
2022-09-22T15:37:26.764Z,23.10
2022-09-22T15:40:13.080Z,23.80
2022-09-22T15:43:09.020Z,24.00
2022-09-22T15:45:48.924Z,24.50
2022-09-22T15:48:37.210Z,24.20
2022-09-22T15:51:15.747Z,24.80
2022-09-22T15:53:51.611Z,24.60
2022-09-22T15:56:29.722Z,23.70
2022-09-22T15:59:04.686Z,24.30
2022-09-22T16:01:40.112Z,24.80
2022-09-22T16:04:15.844Z,24.70
2022-09-22T16:07:02.322Z,24.00
2022-09-22T16:09:37.226Z,24.10
2022-09-22T16:12:13.758Z,24.40
2022-09-22T16:14:49.856Z,24.10
2022-09-22T16:17:25.227Z,24.70
2022-09-22T16:20:01.125Z,24.20
2022-09-22T16:22:36.320Z,24.60
2022-09-22T16:25:12.757Z,24.60
2022-09-22T16:27:47.763Z,24.50
2022-09-22T16:30:25.902Z,24.80
2022-09-22T16:33:01.420Z,24.90
2022-09-22T16:35:36.390Z,25.00
2022-09-22T16:38:11.683Z,24.80
2022-09-22T16:41:05.522Z,24.90
2022-09-22T16:43:40.919Z,25.10
2022-09-22T16:46:29.884Z,25.50
2022-09-22T16:49:07.515Z,25.40
2022-09-22T16:51:48.773Z,25.10
2022-09-22T16:54:24.725Z,25.00
2022-09-22T16:57:00.194Z,25.10
2022-09-22T16:59:35.176Z,24.90
2022-09-22T17:02:10.944Z,25.30
2022-09-22T17:04:46.504Z,25.60
2022-09-22T17:07:24.255Z,25.50
2022-09-22T17:09:59.238Z,25.70
2022-09-22T17:12:34.215Z,25.60
2022-09-22T17:15:12.031Z,25.80
2022-09-22T17:17:46.992Z,26.20
2022-09-22T17:20:22.033Z,26.00
2022-09-22T17:22:57.916Z,26.20
2022-09-22T17:25:33.471Z,26.20
2022-09-22T17:28:08.359Z,26.20
2022-09-22T17:30:43.382Z,26.30
2022-09-22T17:33:18.437Z,26.30
2022-09-22T17:36:01.166Z,26.30
2022-09-22T17:38:38.141Z,26.50
2022-09-22T17:41:13.396Z,26.60
2022-09-22T17:43:55.806Z,26.90
2022-09-22T17:46:34.238Z,27.00
2022-09-22T17:49:38.290Z,27.10
2022-09-22T17:52:34.650Z,27.10
2022-09-22T17:55:22.471Z,27.30
2022-09-22T17:57:57.540Z,27.40
2022-09-22T18:00:33.801Z,27.30
2022-09-22T18:03:08.859Z,27.40
2022-09-22T18:05:44.376Z,27.40
2022-09-22T18:08:19.520Z,27.50
2022-09-22T18:10:55.218Z,27.50
2022-09-22T18:13:30.215Z,27.60
2022-09-22T18:16:23.061Z,27.70
2022-09-22T18:18:59.123Z,27.70
2022-09-22T18:21:34.627Z,27.80
2022-09-22T18:24:09.950Z,28.00
2022-09-22T18:26:46.434Z,28.20
2022-09-22T18:29:22.142Z,28.20
2022-09-22T18:31:58.779Z,28.10
2022-09-22T18:34:33.697Z,28.30
2022-09-22T18:37:10.941Z,28.40
2022-09-22T18:39:46.125Z,28.60
2022-09-22T18:42:24.980Z,28.60
2022-09-22T18:44:59.964Z,28.60
2022-09-22T18:47:39.614Z,28.70
2022-09-22T18:50:14.661Z,28.80
2022-09-22T18:52:54.185Z,28.80
2022-09-22T18:55:32.422Z,29.00
2022-09-22T18:58:07.357Z,29.00
2022-09-22T19:00:42.491Z,29.10
2022-09-22T19:03:17.519Z,29.10
2022-09-22T19:05:52.501Z,29.20
2022-09-22T19:08:27.503Z,29.20
2022-09-22T19:11:02.947Z,29.30
2022-09-22T19:13:39.528Z,29.40
2022-09-22T19:16:14.847Z,29.50
2022-09-22T19:18:49.898Z,29.50
2022-09-22T19:21:25.174Z,29.50
2022-09-22T19:24:06.362Z,29.50
2022-09-22T19:26:42.302Z,29.60
2022-09-22T19:29:17.257Z,29.70
2022-09-22T19:31:55.610Z,29.80
2022-09-22T19:34:31.304Z,29.90
2022-09-22T19:37:06.993Z,30.00
2022-09-22T19:39:43.040Z,30.10
2022-09-22T19:42:18.958Z,30.30
2022-09-22T19:44:53.871Z,30.40
2022-09-22T19:47:29.101Z,30.50
2022-09-22T19:50:07.895Z,30.60
2022-09-22T19:52:42.962Z,30.80
2022-09-22T19:55:21.053Z,30.90
2022-09-22T19:57:56.971Z,31.10
2022-09-22T20:00:32.963Z,31.20
2022-09-22T20:03:07.964Z,31.40
2022-09-22T20:05:42.948Z,31.50
2022-09-22T20:08:20.463Z,31.60
2022-09-22T20:11:16.339Z,31.70
2022-09-22T20:14:09.373Z,31.90
2022-09-22T20:16:46.517Z,32.00
2022-09-22T20:19:23.894Z,32.50
2022-09-22T20:22:25.385Z,32.20
2022-09-22T20:25:01.781Z,32.30
2022-09-22T20:27:37.167Z,32.40
2022-09-22T20:30:12.489Z,32.60
2022-09-22T20:32:47.960Z,32.70
2022-09-22T20:35:24.190Z,32.90
2022-09-22T20:38:00.652Z,32.90
2022-09-22T20:40:36.010Z,33.10
2022-09-22T20:43:15.724Z,33.30
2022-09-22T20:45:50.678Z,33.50
2022-09-22T20:48:25.582Z,33.60
2022-09-22T20:51:02.891Z,33.80
2022-09-22T20:53:39.613Z,33.90
2022-09-22T20:56:14.913Z,34.10
2022-09-22T20:58:50.076Z,34.10
2022-09-22T21:01:25.085Z,34.30
2022-09-22T21:04:01.330Z,34.40
2022-09-22T21:06:36.361Z,34.70
2022-09-22T21:09:30.014Z,34.80
2022-09-22T21:12:06.815Z,34.90
2022-09-22T21:14:45.867Z,35.10
2022-09-22T21:17:21.035Z,35.30
2022-09-22T21:19:57.791Z,35.50
2022-09-22T21:22:32.757Z,35.70
2022-09-22T21:25:08.172Z,35.90
2022-09-22T21:27:44.274Z,36.10
2022-09-22T21:30:19.182Z,36.40
2022-09-22T21:32:54.778Z,36.60
2022-09-22T21:35:29.735Z,36.90
2022-09-22T21:38:04.725Z,37.10
2022-09-22T21:40:39.721Z,37.30
2022-09-22T21:43:14.671Z,37.50
2022-09-22T21:45:59.102Z,37.70
2022-09-22T21:48:38.363Z,37.90
2022-09-22T21:51:20.374Z,38.00
2022-09-22T21:53:56.944Z,38.30
2022-09-22T21:56:34.372Z,38.50
2022-09-22T21:59:11.846Z,38.80
2022-09-22T22:01:46.876Z,39.00
2022-09-22T22:04:22.028Z,39.30
2022-09-22T22:06:56.999Z,39.40
2022-09-22T22:09:31.925Z,39.70
2022-09-22T22:12:06.924Z,39.90
2022-09-22T22:14:42.117Z,40.30
2022-09-22T22:17:17.120Z,40.40
2022-09-22T22:19:52.056Z,40.80
2022-09-22T22:22:27.021Z,41.10
2022-09-22T22:25:12.604Z,41.20
2022-09-22T22:27:47.565Z,41.30
2022-09-22T22:30:22.481Z,41.40
2022-09-22T22:32:57.382Z,41.70
2022-09-22T22:35:32.332Z,41.90
2022-09-22T22:38:07.234Z,42.20
2022-09-22T22:40:42.496Z,42.50
2022-09-22T22:43:19.074Z,42.90
2022-09-22T22:45:54.354Z,43.30
2022-09-22T22:48:29.317Z,43.60
2022-09-22T22:51:14.053Z,43.80
2022-09-22T22:53:50.698Z,44.00
2022-09-22T22:56:27.336Z,45.40
2022-09-22T22:59:02.422Z,45.60
2022-09-22T23:01:37.535Z,45.80
2022-09-22T23:04:13.088Z,46.10
2022-09-22T23:06:48.490Z,46.40
2022-09-22T23:09:23.529Z,46.70
2022-09-22T23:11:58.501Z,47.20
2022-09-22T23:14:33.406Z,47.70
2022-09-22T23:17:08.322Z,48.10
2022-09-22T23:19:43.266Z,48.50
2022-09-22T23:22:18.220Z,48.90
2022-09-22T23:24:53.963Z,49.20
2022-09-22T23:27:29.255Z,49.40
2022-09-22T23:30:04.762Z,49.60
2022-09-22T23:32:39.833Z,49.70
2022-09-22T23:35:14.974Z,50.10
2022-09-22T23:37:51.925Z,50.20
2022-09-22T23:40:27.987Z,50.70
2022-09-22T23:43:03.127Z,50.90
2022-09-22T23:45:38.141Z,51.10
2022-09-22T23:48:14.375Z,51.40
2022-09-22T23:50:54.776Z,51.60
2022-09-22T23:53:37.060Z,51.80
2022-09-22T23:56:11.989Z,52.00
2022-09-22T23:58:47.202Z,52.20
